Time;durP1;ratioP1;P1;durP2;ratioP2;P2;SDS_P1;SDS_P2;PMS_P1;PMS_P2;Temp;Humidity;BMP_temperature;BMP_pressure;BME280_temperature;BME280_humidity;BME280_pressure;Samples;Min_cycle;Max_cycle;Signal;HPM_P1;HPM_P2
2021/03/30 00:02:13;;;;;;;17.13;9.20;;;;;;;1.91;68.65;102502.61;1659739;86;21819;-65
2021/03/30 00:04:48;;;;;;;35.83;14.33;;;;;;;1.86;68.65;102497.95;1658719;85;21176;-65
2021/03/30 00:07:21;;;;;;;32.95;14.28;;;;;;;1.80;68.66;102505.36;1658831;86;21213;-64
2021/03/30 00:09:55;;;;;;;25.08;11.75;;;;;;;1.77;68.79;102505.41;1659140;86;21890;-63
2021/03/30 00:12:28;;;;;;;34.50;14.38;;;;;;;1.75;68.97;102507.16;1659510;86;21276;-63
2021/03/30 00:15:04;;;;;;;15.53;8.15;;;;;;;1.72;68.97;102507.20;1659406;86;21334;-63
2021/03/30 00:17:36;;;;;;;21.87;9.65;;;;;;;1.66;69.07;102509.05;1659291;86;21284;-63
2021/03/30 00:20:15;;;;;;;26.75;11.03;;;;;;;1.61;69.32;102503.95;1659995;86;21205;-62
2021/03/30 00:22:47;;;;;;;24.07;10.08;;;;;;;1.65;69.40;102504.31;1640265;86;21866;-63
2021/03/30 00:25:20;;;;;;;26.50;13.20;;;;;;;1.68;69.37;102506.85;1660330;86;21279;-63
2021/03/30 00:27:53;;;;;;;16.10;8.33;;;;;;;1.72;69.42;102502.04;1658438;86;21296;-66
2021/03/30 00:30:27;;;;;;;18.20;9.67;;;;;;;1.80;69.42;102514.40;1659919;86;21272;-65
2021/03/30 00:33:00;;;;;;;19.53;10.27;;;;;;;1.88;69.32;102511.69;1659343;86;21861;-64
2021/03/30 00:35:33;;;;;;;27.07;12.23;;;;;;;1.95;69.28;102513.29;1660459;86;21169;-65
2021/03/30 00:38:09;;;;;;;32.63;12.85;;;;;;;2.04;69.09;102513.98;1658718;86;21862;-65
2021/03/30 00:40:40;;;;;;;17.65;9.55;;;;;;;2.10;68.95;102515.61;1659448;86;21287;-65
2021/03/30 00:43:13;;;;;;;17.77;10.03;;;;;;;2.16;68.69;102512.04;1659808;86;21331;-65
2021/03/30 00:45:46;;;;;;;17.40;10.18;;;;;;;2.21;68.60;102514.96;1659629;86;21319;-65
2021/03/30 00:48:29;;;;;;;16.50;8.33;;;;;;;2.24;68.37;102516.20;1658737;86;21307;-64
2021/03/30 00:51:02;;;;;;;16.25;8.75;;;;;;;2.27;68.28;102514.01;1659641;86;21806;-66
2021/03/30 00:53:54;;;;;;;13.75;7.80;;;;;;;2.31;68.17;102516.94;1659282;86;21308;-64
2021/03/30 00:56:32;;;;;;;15.98;9.45;;;;;;;2.37;68.06;102512.92;1656973;86;21299;-63
2021/03/30 00:59:06;;;;;;;15.50;9.33;;;;;;;2.45;68.04;102508.04;1658683;86;21330;-64
2021/03/30 01:01:39;;;;;;;19.70;9.30;;;;;;;2.55;67.90;102516.47;1658328;86;21193;-64
2021/03/30 01:04:12;;;;;;;14.00;7.97;;;;;;;2.59;67.69;102514.22;1658042;85;21312;-64
2021/03/30 01:06:47;;;;;;;20.20;10.15;;;;;;;2.63;67.33;102514.56;1649273;87;21292;-64
2021/03/30 01:09:24;;;;;;;16.47;9.40;;;;;;;2.64;67.16;102518.86;1622199;88;21173;-64
2021/03/30 01:12:28;;;;;;;20.32;10.13;;;;;;;2.68;67.08;102520.49;1602052;89;21177;-66
2021/03/30 01:15:31;;;;;;;18.80;9.53;;;;;;;2.73;66.98;102523.41;1642748;87;21181;-64
2021/03/30 01:18:35;;;;;;;28.55;12.53;;;;;;;2.79;66.84;102527.61;1650701;87;21812;-64
2021/03/30 01:21:37;;;;;;;18.95;9.38;;;;;;;2.85;66.63;102527.47;1651761;87;22039;-63
2021/03/30 01:24:36;;;;;;;28.90;10.82;;;;;;;2.80;66.09;102525.85;1651682;87;21304;-65
2021/03/30 01:27:26;;;;;;;19.57;9.33;;;;;;;2.75;66.35;102527.71;1651996;86;21780;-66
2021/03/30 01:29:59;;;;;;;14.03;7.67;;;;;;;2.80;66.44;102527.14;1643092;87;21299;-66
2021/03/30 01:32:40;;;;;;;10.82;6.87;;;;;;;2.85;66.19;102522.73;1625285;87;21296;-64
2021/03/30 01:35:16;;;;;;;12.63;7.95;;;;;;;2.90;65.98;102532.55;1644278;87;21859;-64
2021/03/30 01:37:50;;;;;;;17.85;8.78;;;;;;;2.94;65.95;102527.73;1644770;87;21150;-64
2021/03/30 01:40:31;;;;;;;19.23;8.58;;;;;;;2.99;65.98;102530.62;1644413;87;21308;-64
2021/03/30 01:43:05;;;;;;;17.27;9.63;;;;;;;3.05;65.97;102525.33;1645342;87;21340;-64
2021/03/30 01:45:39;;;;;;;20.88;9.90;;;;;;;3.09;65.89;102524.36;1644423;87;21401;-64
2021/03/30 01:48:13;;;;;;;18.50;9.43;;;;;;;3.11;65.77;102520.00;1644855;87;21335;-64
2021/03/30 01:50:46;;;;;;;;;;;;;;;3.11;65.72;102522.59;1646814;87;21336;-64
2021/03/30 01:53:18;;;;;;;17.20;9.98;;;;;;;3.07;65.75;102520.96;1644968;87;20181;-63
2021/03/30 01:55:54;;;;;;;17.57;9.20;;;;;;;3.02;65.79;102527.97;1644261;87;21296;-63
2021/03/30 01:58:27;;;;;;;19.00;9.83;;;;;;;2.97;65.80;102531.09;1644484;87;21566;-63
2021/03/30 02:01:01;;;;;;;16.17;9.03;;;;;;;2.92;65.87;102533.36;1644286;87;21288;-64
2021/03/30 02:03:34;;;;;;;23.12;11.12;;;;;;;2.86;65.89;102528.33;1645139;87;21452;-63
2021/03/30 02:06:07;;;;;;;20.92;10.30;;;;;;;2.67;66.16;102528.69;1647915;86;21304;-63
2021/03/30 02:08:41;;;;;;;19.65;10.43;;;;;;;2.67;66.16;102528.69;1658535;86;21308;-63
2021/03/30 02:11:25;;;;;;;18.27;9.93;;;;;;;2.58;66.33;102530.17;1662671;85;21866;-64
2021/03/30 02:13:57;;;;;;;16.67;9.50;;;;;;;2.51;66.50;102530.31;1660674;86;21781;-64
2021/03/30 02:16:35;;;;;;;21.85;10.20;;;;;;;2.43;66.72;102534.80;1661386;86;21180;-64
2021/03/30 02:19:20;;;;;;;20.77;9.63;;;;;;;2.35;66.95;102531.50;1663802;86;21731;-63
2021/03/30 02:22:00;;;;;;;17.67;9.28;;;;;;;2.27;67.17;102526.93;1662689;85;21803;-64
2021/03/30 02:24:33;;;;;;;18.45;10.03;;;;;;;2.21;67.41;102530.91;1659848;86;21185;-63
2021/03/30 02:27:09;;;;;;;21.68;10.82;;;;;;;2.13;67.60;102534.91;1662136;86;21981;-63
2021/03/30 02:29:43;;;;;;;18.27;9.53;;;;;;;2.08;67.81;102534.14;1661649;86;21348;-64
2021/03/30 02:32:16;;;;;;;22.25;11.20;;;;;;;1.99;67.97;102527.41;1662898;85;21165;-64
2021/03/30 02:34:49;;;;;;;18.00;10.32;;;;;;;1.93;68.21;102535.28;1661853;86;21320;-65
2021/03/30 02:37:22;;;;;;;18.40;10.37;;;;;;;1.87;68.40;102528.91;1662911;85;21288;-64
2021/03/30 02:39:55;;;;;;;20.30;11.18;;;;;;;1.82;68.64;102533.73;1665475;85;21802;-64
2021/03/30 02:42:29;;;;;;;21.57;9.85;;;;;;;1.77;68.87;102533.81;1664370;85;21706;-64
2021/03/30 02:45:02;;;;;;;23.27;9.83;;;;;;;1.73;69.10;102536.03;1662675;85;21807;-64
2021/03/30 02:47:35;;;;;;;25.70;12.88;;;;;;;1.67;69.21;102536.58;1641992;86;21137;-63
2021/03/30 02:50:10;;;;;;;49.38;19.10;;;;;;;1.59;69.29;102539.28;1661250;86;22151;-65
2021/03/30 02:52:44;;;;;;;56.77;23.47;;;;;;;1.52;69.67;102542.83;1662531;85;21712;-66
2021/03/30 02:55:17;;;;;;;48.05;20.45;;;;;;;1.51;69.94;102544.98;1662618;85;21740;-66
2021/03/30 02:57:50;;;;;;;44.90;18.32;;;;;;;1.48;70.06;102542.44;1662850;85;21284;-65
2021/03/30 03:00:24;;;;;;;51.85;20.00;;;;;;;1.49;70.39;102546.74;1661565;85;21347;-65
2021/03/30 03:02:59;;;;;;;55.00;21.60;;;;;;;1.52;70.53;102542.83;1662987;85;21276;-65
2021/03/30 03:05:32;;;;;;;50.75;20.62;;;;;;;1.57;70.55;102547.49;1662093;85;21181;-66
2021/03/30 03:08:09;;;;;;;30.08;14.68;;;;;;;1.59;70.62;102549.61;1660804;85;21276;-65
2021/03/30 03:10:42;;;;;;;30.23;14.25;;;;;;;1.61;70.74;102549.14;1657414;85;21303;-66
2021/03/30 03:13:15;;;;;;;33.90;14.63;;;;;;;1.64;70.73;102551.68;1662437;85;22221;-66
2021/03/30 03:15:48;;;;;;;47.83;18.23;;;;;;;1.66;70.76;102544.76;1662620;86;21355;-66
2021/03/30 03:18:22;;;;;;;34.78;13.78;;;;;;;1.69;70.83;102554.19;1663080;85;21283;-65
2021/03/30 03:20:56;;;;;;;34.85;15.80;;;;;;;1.74;70.82;102550.67;1661561;85;21284;-65
2021/03/30 03:23:30;;;;;;;32.73;14.70;;;;;;;1.79;70.79;102554.46;1662296;86;21276;-66
2021/03/30 03:26:03;;;;;;;32.03;13.88;;;;;;;1.82;70.69;102553.95;1641834;86;21157;-66
2021/03/30 03:28:44;;;;;;;33.25;14.30;;;;;;;1.85;70.62;102557.80;1662488;85;21165;-62
2021/03/30 03:31:18;;;;;;;93.25;35.13;;;;;;;1.91;70.55;102559.43;1660969;86;21299;-66
2021/03/30 03:33:51;;;;;;;42.30;18.42;;;;;;;1.99;70.43;102556.27;1639522;86;21165;-66
2021/03/30 03:36:24;;;;;;;46.17;17.53;;;;;;;2.14;70.08;102562.90;1662638;86;21268;-67
2021/03/30 03:38:57;;;;;;;49.18;17.12;;;;;;;2.26;69.63;102562.25;1664606;85;21799;-68
2021/03/30 03:41:30;;;;;;;99.20;28.30;;;;;;;2.38;69.35;102566.34;1661044;85;21319;-67
2021/03/30 03:44:05;;;;;;;127.30;36.10;;;;;;;2.50;69.16;102562.23;1662895;85;21221;-67
2021/03/30 03:46:37;;;;;;;;;;;;;;;2.69;68.92;102572.64;1664387;86;21279;-66
2021/03/30 03:49:10;;;;;;;135.00;36.00;;;;;;;3.02;68.33;102573.25;1662376;85;20247;-66
2021/03/30 03:51:46;;;;;;;114.60;31.33;;;;;;;3.33;67.56;102570.86;1661299;86;21303;-66
2021/03/30 03:54:20;;;;;;;70.67;23.57;;;;;;;3.64;66.89;102575.75;1656751;86;21192;-67
2021/03/30 03:57:14;;;;;;;51.45;20.02;;;;;;;3.89;66.47;102573.44;1662522;85;21292;-67
2021/03/30 03:59:47;;;;;;;61.58;21.80;;;;;;;4.07;66.05;102576.42;1663006;85;21307;-68
2021/03/30 04:02:26;;;;;;;55.13;21.93;;;;;;;4.29;65.57;102578.45;1662628;85;21339;-66
2021/03/30 04:05:16;;;;;;;49.20;19.37;;;;;;;4.57;65.03;102580.28;1663319;85;21292;-67
2021/03/30 04:08:09;;;;;;;56.08;21.02;;;;;;;4.97;64.25;102586.97;1660441;86;21372;-67
2021/03/30 04:10:45;;;;;;;61.15;21.97;;;;;;;5.45;63.20;102581.59;1655435;85;22227;-68
2021/03/30 04:13:19;;;;;;;53.50;21.95;;;;;;;5.99;61.78;102592.05;1639901;87;21367;-68
2021/03/30 04:15:52;;;;;;;;;;;;;;;6.54;60.50;102594.94;1645661;86;21827;-68
2021/03/30 04:18:24;;;;;;;59.60;25.20;;;;;;;7.06;58.94;102593.90;1645327;87;20626;-66
2021/03/30 04:20:59;;;;;;;70.25;25.80;;;;;;;7.51;57.40;102590.84;1644565;87;21704;-66
2021/03/30 04:23:33;;;;;;;73.37;27.65;;;;;;;7.96;56.09;102592.06;1621321;87;21198;-67
2021/03/30 04:26:06;;;;;;;92.45;34.73;;;;;;;8.37;54.80;102592.98;1644972;86;21280;-67
2021/03/30 04:28:40;;;;;;;77.40;27.82;;;;;;;8.78;53.26;102597.27;1644117;87;21329;-67
2021/03/30 04:31:13;;;;;;;65.78;28.30;;;;;;;9.17;52.02;102592.84;1644836;86;21239;-67
2021/03/30 04:33:48;;;;;;;55.83;21.02;;;;;;;9.50;50.85;102589.96;1644576;86;21811;-68
2021/03/30 04:36:21;;;;;;;33.38;16.23;;;;;;;9.76;49.96;102600.51;1645295;86;21847;-68
2021/03/30 04:38:55;;;;;;;50.23;17.23;;;;;;;9.78;49.22;102605.20;1643621;87;21361;-69
2021/03/30 04:41:28;;;;;;;47.23;17.75;;;;;;;9.67;48.46;102600.95;1643864;87;21681;-69
2021/03/30 04:44:01;;;;;;;53.35;19.95;;;;;;;9.60;48.52;102604.75;1644328;86;22095;-69
2021/03/30 04:50:45;;;;;;;25.00;14.93;;;;;;;9.20;48.35;102605.77;1639763;86;21181;-68
2021/03/30 04:53:19;;;;;;;28.02;12.50;;;;;;;9.38;47.96;102609.31;1667731;86;22017;-66
2021/03/30 04:55:52;;;;;;;17.57;11.20;;;;;;;9.70;47.74;102609.94;1668403;85;21998;-65
2021/03/30 04:58:25;;;;;;;16.53;11.90;;;;;;;10.25;47.03;102611.19;1667870;86;21335;-61
2021/03/30 05:05:10;;;;;;;14.87;8.35;;;;;;;11.28;44.71;102608.76;1666758;86;21937;-65
2021/03/30 05:07:45;;;;;;;12.60;7.60;;;;;;;12.07;42.88;102605.16;1646755;86;21359;-62
2021/03/30 05:10:20;;;;;;;19.23;8.43;;;;;;;12.40;41.54;102608.91;1667589;86;21582;-65
2021/03/30 05:12:54;;;;;;;33.23;8.73;;;;;;;12.66;41.14;102604.71;1672258;84;21378;-61
2021/03/30 05:15:27;;;;;;;12.37;8.60;;;;;;;12.82;40.52;102609.44;1650936;85;21831;-64
2021/03/30 05:18:00;;;;;;;10.38;7.83;;;;;;;12.88;40.17;102608.20;1667023;84;21331;-63
2021/03/30 05:20:33;;;;;;;11.33;7.95;;;;;;;12.86;40.29;102608.30;1668206;85;21201;-69
2021/03/30 05:23:06;;;;;;;10.32;7.33;;;;;;;13.06;39.91;102609.28;1667216;85;21661;-64
2021/03/30 05:25:40;;;;;;;16.75;9.10;;;;;;;13.36;39.52;102615.25;1668150;86;21201;-65
2021/03/30 05:28:15;;;;;;;21.33;7.08;;;;;;;13.62;38.91;102611.41;1668744;86;21237;-66
2021/03/30 05:30:49;;;;;;;10.90;7.08;;;;;;;13.97;38.53;102613.94;1668613;86;21327;-65
2021/03/30 05:33:23;;;;;;;10.20;5.10;;;;;;;14.58;37.10;102618.59;1667375;85;22030;-66
2021/03/30 05:35:57;;;;;;;7.20;5.72;;;;;;;14.88;35.86;102621.75;1667990;85;21229;-66
2021/03/30 05:38:30;;;;;;;9.03;5.33;;;;;;;15.03;35.48;102615.89;1668281;85;21359;-64
2021/03/30 05:41:06;;;;;;;9.33;6.28;;;;;;;15.23;34.40;102609.59;1667967;85;21311;-63
2021/03/30 05:43:39;;;;;;;9.65;5.58;;;;;;;15.25;34.66;102618.23;1666863;86;21244;-70
2021/03/30 05:46:13;;;;;;;8.85;5.80;;;;;;;15.44;34.02;102613.80;1668322;86;21344;-70
2021/03/30 05:52:53;;;;;;;7.08;5.05;;;;;;;15.08;33.26;102613.30;1667346;86;20234;-64
2021/03/30 05:55:30;;;;;;;6.40;4.37;;;;;;;14.11;34.34;102621.77;1667471;85;21354;-61
2021/03/30 05:58:04;;;;;;;4.97;4.40;;;;;;;13.87;35.27;102625.55;1668037;86;21319;-60
2021/03/30 06:00:46;;;;;;;6.25;4.53;;;;;;;13.95;34.96;102627.19;1667204;85;21253;-59
2021/03/30 06:07:32;;;;;;;6.10;4.12;;;;;;;13.71;35.72;102627.45;1667960;86;21449;-64
2021/03/30 06:14:15;;;;;;;7.62;4.28;;;;;;;14.38;34.50;102623.05;1668165;86;21129;-64
2021/03/30 06:16:50;;;;;;;6.03;3.40;;;;;;;15.65;33.25;102613.59;1647125;84;21186;-63
2021/03/30 06:19:23;;;;;;;4.50;3.17;;;;;;;16.52;31.17;102617.20;1668577;85;21604;-64
2021/03/30 06:22:01;;;;;;;4.03;3.37;;;;;;;17.02;29.89;102614.13;1668165;85;21413;-63
2021/03/30 06:24:34;;;;;;;4.97;4.30;;;;;;;17.18;29.57;102621.68;1668301;85;21618;-64
2021/03/30 06:27:13;;;;;;;3.47;3.17;;;;;;;17.46;28.70;102619.83;1666716;86;21224;-64
2021/03/30 06:29:46;;;;;;;3.30;2.92;;;;;;;17.25;28.36;102617.10;1667875;86;21348;-64
2021/03/30 06:36:33;;;;;;;3.72;3.10;;;;;;;17.66;28.59;102621.75;1666504;86;21197;-64
2021/03/30 06:39:08;;;;;;;3.40;3.10;;;;;;;18.30;27.40;102629.67;1667952;86;21335;-66
2021/03/30 06:44:38;;;;;;;5.20;3.20;;;;;;;18.98;26.32;102641.09;1666255;85;21237;-63
2021/03/30 06:47:22;;;;;;;2.98;2.77;;;;;;;19.32;25.62;102635.84;1667778;86;21202;-62
2021/03/30 06:50:03;;;;;;;;;;;;;;;19.29;24.98;102639.61;1670353;85;22006;-59
2021/03/30 06:52:38;;;;;;;4.40;3.27;;;;;;;18.01;25.76;102640.05;1667716;86;20237;-60
2021/03/30 06:55:29;;;;;;;6.08;3.15;;;;;;;16.31;28.01;102647.37;1667779;86;21496;-65
2021/03/30 06:58:15;;;;;;;6.28;3.27;;;;;;;14.84;30.01;102654.10;1668151;85;22116;-61
2021/03/30 07:00:48;;;;;;;7.33;3.77;;;;;;;13.69;31.76;102646.92;1667430;86;21375;-59
2021/03/30 07:03:23;;;;;;;7.95;3.80;;;;;;;13.23;32.96;102651.63;1667352;85;21594;-61
2021/03/30 07:05:59;;;;;;;4.25;3.33;;;;;;;13.16;33.08;102651.14;1666502;86;21382;-63
2021/03/30 07:08:32;;;;;;;3.22;3.02;;;;;;;12.78;32.90;102649.51;1625178;86;21244;-60
2021/03/30 07:11:05;;;;;;;5.42;3.15;;;;;;;12.25;33.94;102649.22;1667757;86;22224;-61
2021/03/30 07:13:51;;;;;;;;;;;;;;;11.57;34.74;102651.75;1669017;85;21856;-61
2021/03/30 07:16:28;;;;;;;10.13;3.75;;;;;;;10.92;36.42;102663.14;1667304;86;20293;-60
2021/03/30 07:19:04;;;;;;;4.80;3.80;;;;;;;10.33;37.95;102662.72;1669207;84;21371;-59
2021/03/30 07:21:41;;;;;;;;;;;;;;;10.04;38.57;102654.95;1669332;86;22196;-60
2021/03/30 07:24:14;;;;;;;5.97;3.52;;;;;;;9.77;38.92;102661.05;1645720;86;20241;-59
2021/03/30 07:27:02;;;;;;;5.62;3.98;;;;;;;9.54;39.76;102659.97;1667005;85;22159;-60
2021/03/30 07:29:40;;;;;;;6.00;3.70;;;;;;;9.45;40.51;102671.72;1668125;85;21260;-63
2021/03/30 07:32:42;;;;;;;7.62;4.03;;;;;;;9.16;40.93;102666.95;1666387;84;21331;-63
2021/03/30 07:35:18;;;;;;;6.35;3.80;;;;;;;8.99;41.60;102670.77;1667902;85;22242;-62
2021/03/30 07:38:24;;;;;;;5.15;4.20;;;;;;;8.88;41.78;102674.77;1666577;86;21335;-65
2021/03/30 07:40:57;;;;;;;9.08;4.70;;;;;;;8.92;41.87;102669.78;1667714;85;21320;-65
2021/03/30 07:43:30;;;;;;;5.70;3.62;;;;;;;9.06;41.60;102672.64;1667483;86;21510;-66
2021/03/30 07:46:04;;;;;;;8.50;3.90;;;;;;;10.08;40.44;102672.19;1667817;86;21386;-71
2021/03/30 07:48:39;;;;;;;7.70;5.17;;;;;;;11.71;38.37;102673.31;1669853;85;21387;-69
2021/03/30 07:51:14;;;;;;;7.72;4.45;;;;;;;13.43;35.34;102671.80;1667554;85;21452;-71
2021/03/30 07:54:13;;;;;;;7.67;3.33;;;;;;;14.52;32.87;102675.70;1667971;86;21343;-65
2021/03/30 07:56:51;;;;;;;3.60;3.12;;;;;;;15.46;30.88;102663.39;1666318;86;21257;-65
2021/03/30 07:59:49;;;;;;;4.65;3.27;;;;;;;15.88;29.52;102666.08;1667721;86;21228;-66
2021/03/30 08:02:28;;;;;;;4.20;3.25;;;;;;;16.36;28.31;102674.81;1666866;85;21335;-65
2021/03/30 08:05:07;;;;;;;3.77;3.25;;;;;;;16.69;27.93;102680.23;1647564;85;21510;-64
2021/03/30 08:07:48;;;;;;;10.00;3.35;;;;;;;17.11;27.28;102672.09;1666850;86;21620;-64
2021/03/30 08:10:33;;;;;;;5.17;2.70;;;;;;;16.99;27.27;102673.05;1668665;85;22137;-68
2021/03/30 08:13:30;;;;;;;3.05;2.77;;;;;;;16.11;28.25;102672.67;1663379;85;21453;-59
2021/03/30 08:16:10;;;;;;;3.55;3.12;;;;;;;15.05;29.46;102665.42;1663700;86;21315;-61
2021/03/30 08:18:45;;;;;;;4.12;3.75;;;;;;;14.31;30.82;102681.91;1668055;85;21364;-64
2021/03/30 08:21:19;;;;;;;3.70;3.25;;;;;;;14.17;31.36;102670.09;1668348;84;21252;-62
2021/03/30 08:24:13;;;;;;;6.25;3.83;;;;;;;14.06;32.08;102667.32;1670031;84;21347;-61
2021/03/30 08:26:47;;;;;;;3.17;2.80;;;;;;;13.83;31.87;102662.67;1666892;85;21327;-63
2021/03/30 08:29:36;;;;;;;4.30;3.40;;;;;;;13.23;32.79;102680.07;1667932;86;21478;-62
2021/03/30 08:32:11;;;;;;;3.58;3.00;;;;;;;13.23;32.79;102680.07;1667540;86;21969;-61
2021/03/30 08:34:44;;;;;;;4.40;2.53;;;;;;;12.64;33.18;102670.52;1662895;84;22067;-60
2021/03/30 08:37:20;;;;;;;3.90;2.77;;;;;;;12.16;33.72;102665.02;1667347;86;21339;-62
2021/03/30 08:39:52;;;;;;;3.80;2.85;;;;;;;11.85;34.31;102670.31;1667556;86;21315;-63
2021/03/30 08:42:28;;;;;;;3.20;2.87;;;;;;;11.57;34.69;102668.80;1667492;86;21513;-65
2021/03/30 08:45:10;;;;;;;3.70;3.12;;;;;;;11.28;35.35;102680.87;1646982;85;21194;-63
2021/03/30 08:47:47;;;;;;;16.48;4.20;;;;;;;10.93;35.87;102671.41;1667123;86;21355;-61
2021/03/30 08:50:28;;;;;;;5.35;3.08;;;;;;;10.56;37.48;102669.80;1667402;86;21319;-62
2021/03/30 08:53:05;;;;;;;17.45;4.17;;;;;;;10.43;37.58;102663.96;1667033;86;22120;-61
2021/03/30 08:59:47;;;;;;;7.92;3.83;;;;;;;10.51;37.75;102666.57;1668024;86;21263;-61
2021/03/30 09:02:27;;;;;;;7.03;3.37;;;;;;;10.52;37.70;102670.89;1667770;86;21323;-63
2021/03/30 09:05:01;;;;;;;6.10;2.85;;;;;;;10.36;38.12;102671.74;1667385;86;21198;-61
2021/03/30 09:07:46;;;;;;;6.97;3.60;;;;;;;10.24;38.23;102661.42;1667806;86;21378;-63
2021/03/30 09:10:19;;;;;;;9.43;4.35;;;;;;;10.26;38.40;102663.49;1667782;86;22002;-61
2021/03/30 09:12:52;;;;;;;6.03;2.77;;;;;;;10.33;38.43;102661.41;1646944;86;21244;-62
2021/03/30 09:15:26;;;;;;;8.88;4.33;;;;;;;10.24;38.26;102658.80;1647056;85;21225;-65
2021/03/30 09:18:01;;;;;;;4.58;3.33;;;;;;;10.13;39.01;102646.68;1624642;86;21282;-65
2021/03/30 09:20:34;;;;;;;4.75;3.35;;;;;;;10.00;39.50;102650.34;1667525;86;21181;-64
2021/03/30 09:27:27;;;;;;;19.05;9.10;;;;;;;9.85;40.32;102646.30;1668288;83;21863;-62
2021/03/30 09:30:04;;;;;;;8.38;4.03;;;;;;;9.86;40.63;102654.05;1682825;84;21240;-66
2021/03/30 09:36:50;;;;;;;18.62;8.45;;;;;;;10.23;40.23;102664.95;1684323;85;21149;-65
2021/03/30 09:39:25;;;;;;;9.80;5.47;;;;;;;10.50;39.98;102646.56;1684973;84;22207;-63
2021/03/30 09:41:58;;;;;;;14.47;7.50;;;;;;;10.63;39.94;102649.38;1685521;84;21374;-64
2021/03/30 09:44:45;;;;;;;4.20;3.62;;;;;;;10.51;40.07;102647.37;1696612;83;21375;-61
2021/03/30 09:47:19;;;;;;;15.35;5.80;;;;;;;10.36;40.20;102649.03;1698848;83;21213;-62
2021/03/30 09:49:54;;;;;;;28.85;17.98;;;;;;;10.11;40.56;102641.53;1698006;83;21599;-67
2021/03/30 09:52:29;;;;;;;14.83;6.97;;;;;;;9.84;40.98;102642.83;1698589;84;21217;-67
2021/03/30 09:55:01;;;;;;;13.55;4.25;;;;;;;9.59;41.07;102644.06;1697274;83;21475;-65
2021/03/30 09:57:34;;;;;;;15.40;4.78;;;;;;;9.53;41.01;102643.06;1698850;84;21253;-67
2021/03/30 10:00:11;;;;;;;7.12;4.80;;;;;;;9.48;41.80;102642.80;1697448;84;21323;-58
2021/03/30 10:02:46;;;;;;;14.38;6.78;;;;;;;9.47;42.20;102652.88;1698776;84;21491;-62
2021/03/30 10:09:29;;;;;;;14.55;5.42;;;;;;;9.56;41.52;102650.28;1698033;84;22030;-64
2021/03/30 10:12:23;;;;;;;12.80;6.42;;;;;;;9.59;41.81;102650.15;1698857;84;21379;-67
2021/03/30 10:14:59;;;;;;;5.50;4.20;;;;;;;9.60;41.88;102649.70;1698209;84;21229;-64
2021/03/30 10:17:33;;;;;;;11.43;4.55;;;;;;;9.52;41.64;102647.44;1697286;84;22151;-66
2021/03/30 10:20:08;;;;;;;3.90;3.20;;;;;;;9.44;42.09;102646.93;1697690;83;21386;-67
2021/03/30 10:22:48;;;;;;;6.78;4.25;;;;;;;9.40;42.26;102647.55;1698525;84;21205;-63
2021/03/30 10:25:27;;;;;;;9.95;5.28;;;;;;;9.46;42.24;102646.39;1699814;84;21587;-67
2021/03/30 10:28:01;;;;;;;6.97;4.22;;;;;;;9.54;42.17;102642.12;1699036;83;21202;-64
2021/03/30 10:30:44;;;;;;;6.10;4.10;;;;;;;9.54;41.91;102645.59;1691990;83;21351;-65
2021/03/30 10:33:19;;;;;;;9.98;4.00;;;;;;;9.49;41.96;102642.34;1689528;84;21269;-59
2021/03/30 10:35:52;;;;;;;11.95;4.92;;;;;;;9.52;41.97;102645.27;1670349;84;21323;-62
2021/03/30 10:38:25;;;;;;;8.83;5.77;;;;;;;9.46;42.30;102643.78;1686709;84;21576;-64
2021/03/30 10:41:11;;;;;;;19.12;7.87;;;;;;;9.43;42.50;102639.54;1685032;84;21214;-66
2021/03/30 10:43:46;;;;;;;70.50;8.18;;;;;;;9.46;42.79;102642.47;1686609;84;21324;-60
2021/03/30 10:46:21;;;;;;;7.50;4.78;;;;;;;9.49;42.98;102641.88;1666666;85;21586;-66
2021/03/30 10:49:06;;;;;;;11.28;6.25;;;;;;;9.53;42.83;102635.22;1685985;84;21680;-65
2021/03/30 10:51:41;;;;;;;5.72;4.22;;;;;;;9.55;42.80;102643.37;1686885;84;22178;-65
2021/03/30 10:54:18;;;;;;;16.67;9.60;;;;;;;9.52;42.38;102640.05;1688370;84;21657;-64
2021/03/30 10:56:50;;;;;;;22.22;5.42;;;;;;;9.44;42.40;102629.94;1685831;85;21431;-68
2021/03/30 10:59:25;;;;;;;42.50;19.70;;;;;;;9.45;42.28;102625.96;1685877;85;21222;-66
2021/03/30 11:01:58;;;;;;;12.35;7.65;;;;;;;9.42;42.40;102632.63;1667093;85;21241;-61
2021/03/30 11:04:33;;;;;;;35.08;14.45;;;;;;;9.46;42.64;102619.80;1685989;85;21229;-64
2021/03/30 11:07:07;;;;;;;19.32;9.70;;;;;;;9.55;42.61;102618.98;1686164;84;21332;-63
2021/03/30 11:09:44;;;;;;;9.83;4.67;;;;;;;9.63;42.40;102617.69;1686136;85;22212;-63
2021/03/30 11:12:18;;;;;;;45.20;20.88;;;;;;;9.74;42.24;102612.81;1687135;84;21505;-66
2021/03/30 11:14:56;;;;;;;27.87;9.90;;;;;;;9.85;41.88;102620.13;1684885;84;21249;-69
2021/03/30 11:17:33;;;;;;;7.67;4.55;;;;;;;9.91;42.09;102616.75;1685505;85;21497;-61
2021/03/30 11:20:08;;;;;;;22.45;11.22;;;;;;;9.95;41.65;102621.39;1687194;84;21328;-62
2021/03/30 11:22:49;;;;;;;8.70;4.40;;;;;;;9.90;41.68;102615.07;1686574;85;21348;-59
2021/03/30 11:25:23;;;;;;;5.70;4.47;;;;;;;9.86;41.55;102614.81;1685802;85;22157;-62
2021/03/30 11:28:03;;;;;;;15.58;9.00;;;;;;;9.79;41.70;102613.91;1685756;84;21396;-61
2021/03/30 11:30:47;;;;;;;9.78;5.97;;;;;;;9.72;42.45;102609.40;1686423;84;21384;-61
2021/03/30 11:33:20;;;;;;;10.18;5.30;;;;;;;9.72;42.37;102612.02;1684896;84;21273;-65
2021/03/30 11:35:57;;;;;;;6.70;4.08;;;;;;;9.68;42.16;102610.93;1685547;85;22045;-65
2021/03/30 11:38:27;;;;;;;8.65;4.60;;;;;;;9.63;42.03;102610.30;1686752;84;21523;-64
2021/03/30 11:41:00;;;;;;;20.05;8.43;;;;;;;9.56;42.26;102608.89;1692908;84;21367;-64
2021/03/30 11:43:35;;;;;;;8.35;4.33;;;;;;;9.45;42.60;102605.50;1688198;84;21358;-63
2021/03/30 11:46:10;;;;;;;10.32;4.42;;;;;;;9.40;42.86;102611.40;1689336;84;21221;-60
2021/03/30 11:48:46;;;;;;;13.68;5.72;;;;;;;9.28;43.11;102602.81;1690752;84;21383;-60
2021/03/30 11:51:20;;;;;;;8.20;5.30;;;;;;;9.28;43.22;102603.67;1689871;84;22101;-67
2021/03/30 11:53:54;;;;;;;17.17;9.38;;;;;;;9.33;43.79;102602.14;1690965;84;21315;-65
2021/03/30 11:56:29;;;;;;;33.23;12.40;;;;;;;9.42;44.43;102593.87;1690177;84;22152;-62
2021/03/30 11:59:14;;;;;;;10.95;5.53;;;;;;;9.54;44.09;102597.22;1689510;84;21340;-61
2021/03/30 12:01:47;;;;;;;;;;;;;;;9.62;43.62;102600.78;1692657;84;21339;-61
2021/03/30 12:04:19;;;;;;;8.53;4.85;;;;;;;9.55;43.93;102601.54;1690800;84;20368;-64
2021/03/30 12:06:54;;;;;;;11.35;6.90;;;;;;;9.45;43.99;102606.80;1691018;84;21304;-60
2021/03/30 12:09:28;;;;;;;21.10;8.48;;;;;;;9.36;44.21;102602.02;1689699;84;21206;-61
2021/03/30 12:12:02;;;;;;;11.20;6.55;;;;;;;9.25;44.47;102603.80;1689576;84;21213;-62
2021/03/30 12:14:36;;;;;;;;;;;;;;;9.19;44.50;102609.33;1691851;84;21233;-61
2021/03/30 12:17:09;;;;;;;8.93;4.70;;;;;;;9.18;44.94;102616.77;1690641;84;20243;-62
2021/03/30 12:19:43;;;;;;;5.90;4.22;;;;;;;9.08;45.63;102614.62;1689676;84;22080;-62
2021/03/30 12:22:16;;;;;;;7.78;4.60;;;;;;;8.97;46.37;102609.90;1690024;84;21331;-59
2021/03/30 12:24:50;;;;;;;9.50;6.30;;;;;;;8.91;47.00;102613.25;1690817;84;21324;-60
2021/03/30 12:27:24;;;;;;;15.88;8.30;;;;;;;8.91;48.29;102611.95;1689826;84;21356;-59
2021/03/30 12:29:57;;;;;;;12.07;7.78;;;;;;;8.86;48.65;102603.46;1689286;84;21348;-58
2021/03/30 12:32:31;;;;;;;18.17;12.75;;;;;;;8.93;50.15;102604.44;1689785;84;21335;-60
2021/03/30 12:35:06;;;;;;;10.13;6.83;;;;;;;9.09;51.37;102601.96;1690485;84;21900;-60
2021/03/30 12:37:39;;;;;;;12.65;8.23;;;;;;;9.28;51.66;102595.83;1689357;84;21391;-61
2021/03/30 12:40:13;;;;;;;10.75;7.10;;;;;;;9.53;51.43;102599.43;1690642;84;21325;-65
2021/03/30 12:42:48;;;;;;;9.80;6.87;;;;;;;9.63;49.64;102598.53;1691879;84;21323;-63
2021/03/30 12:45:25;;;;;;;9.28;6.83;;;;;;;9.69;49.46;102587.34;1691386;84;21346;-63
2021/03/30 12:47:58;;;;;;;8.83;6.12;;;;;;;9.76;49.81;102590.05;1696670;84;21217;-69
2021/03/30 12:50:31;;;;;;;7.60;5.53;;;;;;;9.83;50.01;102587.97;1697254;84;21209;-64
2021/03/30 12:53:08;;;;;;;9.75;6.45;;;;;;;9.86;49.41;102591.75;1689252;84;21228;-64